createdAt,value
2023-03-21T00:00:06.013Z,15.93
2023-03-21T00:02:33.942Z,16.87
2023-03-21T00:05:13.450Z,14.37
2023-03-21T00:07:44.519Z,15.37
2023-03-21T00:10:18.148Z,16.03
2023-03-21T00:12:58.466Z,14.17
2023-03-21T00:15:39.309Z,14.20
2023-03-21T00:18:11.396Z,17.67
2023-03-21T00:20:39.356Z,16.70
2023-03-21T00:23:08.661Z,14.43
2023-03-21T00:25:36.899Z,15.73
2023-03-21T00:28:08.351Z,18.63
2023-03-21T00:30:36.473Z,17.57
2023-03-21T00:33:19.674Z,19.90
2023-03-21T00:36:01.841Z,18.13
2023-03-21T00:38:32.416Z,16.87
2023-03-21T00:41:04.757Z,20.03
2023-03-21T00:43:35.596Z,20.13
2023-03-21T00:46:03.607Z,20.93
2023-03-21T00:48:31.601Z,20.30
2023-03-21T00:51:00.573Z,22.07
2023-03-21T00:53:28.983Z,20.73
2023-03-21T00:55:58.621Z,22.17
2023-03-21T00:58:26.504Z,20.87
2023-03-21T01:00:54.824Z,23.63
2023-03-21T01:03:26.611Z,20.67
2023-03-21T01:06:04.189Z,20.70
2023-03-21T01:08:44.581Z,18.27
2023-03-21T01:11:22.781Z,22.73
2023-03-21T01:14:10.763Z,24.33
2023-03-21T01:16:39.126Z,24.03
2023-03-21T01:19:14.892Z,24.80
2023-03-21T01:21:50.308Z,23.03
2023-03-21T01:24:18.273Z,23.07
2023-03-21T01:26:47.534Z,26.00
2023-03-21T01:29:15.509Z,23.03
2023-03-21T01:31:43.550Z,23.17
2023-03-21T01:34:11.525Z,24.00
2023-03-21T01:36:39.540Z,24.30
2023-03-21T01:39:07.718Z,24.70
2023-03-21T01:41:45.156Z,23.27
2023-03-21T01:44:18.747Z,23.73
2023-03-21T01:47:14.114Z,25.40
2023-03-21T01:49:40.183Z,24.23
2023-03-21T01:52:15.144Z,25.83
2023-03-21T01:54:46.342Z,24.03
2023-03-21T01:57:18.475Z,25.43
2023-03-21T01:59:50.125Z,24.83
2023-03-21T02:02:20.909Z,25.33
2023-03-21T02:04:51.108Z,23.77
2023-03-21T02:07:24.353Z,25.47
2023-03-21T02:09:53.522Z,28.03
2023-03-21T02:12:21.576Z,28.23
2023-03-21T02:14:51.353Z,29.27
2023-03-21T02:17:27.110Z,24.20
2023-03-21T02:20:28.566Z,27.17
2023-03-21T02:23:36.282Z,25.03
2023-03-21T02:26:42.144Z,26.37
2023-03-21T02:29:20.003Z,29.20
2023-03-21T02:31:52.464Z,24.13
2023-03-21T02:34:41.410Z,26.40
2023-03-21T02:37:36.683Z,24.70
2023-03-21T02:40:11.317Z,24.63
2023-03-21T02:42:51.674Z,29.07
2023-03-21T02:45:28.194Z,27.93
2023-03-21T02:47:58.898Z,26.90
2023-03-21T02:50:31.037Z,23.30
2023-03-21T02:53:01.376Z,28.83
2023-03-21T02:55:32.374Z,24.97
2023-03-21T02:58:10.408Z,22.30
2023-03-21T03:00:40.434Z,26.40
2023-03-21T03:03:12.568Z,22.57
2023-03-21T03:05:45.346Z,26.67
2023-03-21T03:08:35.756Z,29.83
2023-03-21T03:11:17.097Z,23.20
2023-03-21T03:13:58.169Z,24.97
2023-03-21T03:16:30.207Z,26.00
2023-03-21T03:19:00.066Z,25.10
2023-03-21T03:21:32.884Z,29.10
2023-03-21T03:24:03.940Z,24.10
2023-03-21T03:26:34.751Z,29.67
2023-03-21T03:29:05.474Z,24.50
2023-03-21T03:31:36.412Z,27.30
2023-03-21T03:34:08.388Z,29.37
2023-03-21T03:36:39.096Z,28.37
2023-03-21T03:39:10.539Z,26.70
2023-03-21T03:42:07.805Z,25.57
2023-03-21T03:44:32.129Z,25.30
2023-03-21T03:47:01.988Z,26.43
2023-03-21T03:49:33.746Z,26.40
2023-03-21T03:52:05.440Z,30.10
2023-03-21T03:54:38.460Z,28.90
2023-03-21T03:57:07.252Z,26.27
2023-03-21T03:59:35.599Z,26.10
2023-03-21T04:02:04.093Z,25.33
2023-03-21T04:04:32.086Z,26.60
2023-03-21T04:07:00.174Z,25.63
2023-03-21T04:09:42.776Z,26.00
2023-03-21T04:12:12.878Z,25.60
2023-03-21T04:14:45.707Z,26.30
2023-03-21T04:17:15.344Z,28.13
2023-03-21T04:19:43.650Z,25.57
2023-03-21T04:22:12.377Z,24.03
2023-03-21T04:24:40.352Z,26.73
2023-03-21T04:27:08.263Z,24.50
2023-03-21T04:29:37.540Z,23.77
2023-03-21T04:32:06.307Z,24.63
2023-03-21T04:34:40.294Z,24.27
2023-03-21T04:37:11.274Z,26.93
2023-03-21T04:39:39.411Z,21.80
2023-03-21T04:42:07.360Z,24.40
2023-03-21T04:44:35.522Z,25.83
2023-03-21T04:47:05.078Z,23.20
2023-03-21T04:49:32.955Z,22.17
2023-03-21T04:52:00.932Z,24.73
2023-03-21T04:54:28.861Z,23.00
2023-03-21T04:56:56.783Z,24.03
2023-03-21T04:59:24.760Z,25.53
2023-03-21T05:01:53.133Z,25.63
2023-03-21T05:04:22.444Z,22.97
2023-03-21T05:06:50.383Z,24.27
2023-03-21T05:09:18.370Z,24.30
2023-03-21T05:11:46.340Z,23.63
2023-03-21T05:14:17.771Z,25.23
2023-03-21T05:16:53.261Z,26.13
2023-03-21T05:19:23.849Z,24.97
2023-03-21T05:21:51.796Z,26.83
2023-03-21T05:24:21.264Z,27.87
2023-03-21T05:26:52.418Z,26.70
2023-03-21T05:29:21.762Z,26.53
2023-03-21T05:31:49.701Z,26.10
2023-03-21T05:34:17.619Z,28.17
2023-03-21T05:36:46.923Z,25.23
2023-03-21T05:39:14.810Z,27.07
2023-03-21T05:41:42.721Z,26.53
2023-03-21T05:44:10.802Z,27.43
2023-03-21T05:46:38.811Z,28.93
2023-03-21T05:49:06.702Z,25.63
2023-03-21T05:51:34.626Z,26.70
2023-03-21T05:54:03.898Z,25.57
2023-03-21T05:56:31.791Z,28.60
2023-03-21T05:58:59.732Z,25.20
2023-03-21T06:01:27.750Z,30.20
2023-03-21T06:03:55.723Z,31.83
2023-03-21T06:06:23.672Z,32.10
2023-03-21T06:08:51.568Z,28.20
2023-03-21T06:11:28.327Z,33.17
2023-03-21T06:13:56.219Z,30.83
2023-03-21T06:16:24.335Z,30.20
2023-03-21T06:18:52.245Z,33.70
2023-03-21T06:21:20.735Z,29.90
2023-03-21T06:23:51.631Z,39.73
2023-03-21T06:26:23.033Z,31.73
2023-03-21T06:28:52.713Z,32.43
2023-03-21T06:31:22.657Z,37.73
2023-03-21T06:33:51.718Z,32.87
2023-03-21T06:36:20.047Z,34.63
2023-03-21T06:38:48.718Z,32.00
2023-03-21T06:41:17.207Z,35.50
2023-03-21T06:43:45.336Z,39.73
2023-03-21T06:46:14.657Z,37.73
2023-03-21T06:48:44.579Z,40.83
2023-03-21T06:51:13.622Z,43.20
2023-03-21T06:53:42.190Z,45.70
2023-03-21T06:56:10.897Z,40.10
2023-03-21T06:58:38.825Z,46.20
2023-03-21T07:01:08.216Z,38.90
2023-03-21T07:03:37.912Z,42.63
2023-03-21T07:06:07.217Z,36.03
2023-03-21T07:08:35.337Z,40.67
2023-03-21T07:11:03.358Z,38.57
2023-03-21T07:13:31.905Z,45.50
2023-03-21T07:16:00.075Z,38.43
2023-03-21T07:18:28.163Z,34.70
2023-03-21T07:20:57.462Z,36.23
2023-03-21T07:23:26.605Z,39.60
2023-03-21T07:25:55.438Z,37.77
2023-03-21T07:28:23.854Z,44.77
2023-03-21T07:30:56.320Z,35.80
2023-03-21T07:33:24.726Z,39.07
2023-03-21T07:35:53.129Z,38.57
2023-03-21T07:38:22.760Z,39.73
2023-03-21T07:40:50.956Z,35.53
2023-03-21T07:45:51.951Z,37.30
2023-03-21T07:48:19.961Z,35.57
2023-03-21T07:50:47.857Z,45.87
2023-03-21T07:53:15.779Z,37.07
2023-03-21T07:55:45.095Z,46.37
2023-03-21T07:58:13.001Z,37.77
2023-03-21T08:00:41.016Z,43.37
2023-03-21T08:03:09.049Z,32.20
2023-03-21T08:05:39.020Z,37.53
2023-03-21T08:08:07.405Z,38.23
2023-03-21T08:10:36.095Z,43.17
2023-03-21T08:13:05.622Z,43.00
2023-03-21T08:15:33.520Z,46.23
2023-03-21T08:18:01.586Z,38.97
2023-03-21T08:20:29.703Z,35.60
2023-03-21T08:22:57.660Z,37.50
2023-03-21T08:25:25.939Z,46.43
2023-03-21T08:27:53.864Z,40.10
2023-03-21T08:30:25.935Z,35.83
2023-03-21T08:33:00.632Z,41.63
2023-03-21T08:35:28.780Z,37.87
2023-03-21T08:37:57.028Z,34.63
2023-03-21T08:40:24.945Z,43.33
2023-03-21T08:42:52.869Z,39.23
2023-03-21T08:45:21.085Z,39.03
2023-03-21T08:47:50.372Z,39.03
2023-03-21T08:50:19.805Z,38.50
2023-03-21T08:52:47.879Z,40.03
2023-03-21T08:55:17.014Z,40.90
2023-03-21T08:57:45.187Z,42.77
2023-03-21T09:00:15.342Z,36.67
2023-03-21T09:02:43.580Z,39.63
2023-03-21T09:05:13.681Z,35.67
2023-03-21T09:07:42.551Z,33.00
2023-03-21T09:10:21.856Z,34.17
2023-03-21T09:12:50.858Z,30.40
2023-03-21T09:15:21.845Z,31.63
2023-03-21T09:17:52.541Z,31.67
2023-03-21T09:20:30.647Z,30.70
2023-03-21T09:22:59.757Z,27.50
2023-03-21T09:25:29.552Z,26.23
2023-03-21T09:27:58.189Z,27.40
2023-03-21T09:30:26.723Z,24.00
2023-03-21T09:32:55.822Z,21.50
2023-03-21T09:35:27.119Z,22.50
2023-03-21T09:37:57.548Z,26.50
2023-03-21T09:40:40.123Z,20.13
2023-03-21T09:43:11.494Z,20.43
2023-03-21T09:45:44.717Z,21.97
2023-03-21T09:48:20.139Z,20.63
2023-03-21T09:50:50.613Z,26.87
2023-03-21T09:53:23.465Z,22.77
2023-03-21T09:55:52.029Z,21.70
2023-03-21T09:58:27.199Z,22.87
2023-03-21T10:01:01.227Z,22.63
2023-03-21T10:03:35.070Z,21.20
2023-03-21T10:06:11.382Z,26.50
2023-03-21T10:08:41.942Z,22.93
2023-03-21T10:11:14.701Z,28.33
2023-03-21T10:13:44.767Z,26.40
2023-03-21T10:16:16.547Z,26.43
2023-03-21T10:18:46.830Z,24.60
2023-03-21T10:21:43.387Z,21.77
2023-03-21T10:24:13.087Z,22.73
2023-03-21T10:26:41.624Z,20.90
2023-03-21T10:29:11.620Z,22.73
2023-03-21T10:31:40.025Z,23.17
2023-03-21T10:34:15.223Z,23.87
2023-03-21T10:36:44.532Z,24.30
2023-03-21T10:39:21.814Z,22.27
2023-03-21T10:41:52.174Z,26.23
2023-03-21T10:44:21.475Z,19.63
2023-03-21T10:46:53.920Z,21.60
2023-03-21T10:49:26.480Z,17.70
2023-03-21T10:51:58.448Z,20.80
2023-03-21T10:54:30.351Z,18.63
2023-03-21T10:56:59.758Z,19.50
2023-03-21T10:59:29.261Z,21.07
2023-03-21T11:01:57.903Z,19.80
2023-03-21T11:04:28.016Z,22.03
2023-03-21T11:06:59.759Z,20.97
2023-03-21T11:09:43.864Z,23.63
2023-03-21T11:12:13.065Z,20.10
2023-03-21T11:14:43.003Z,25.27
2023-03-21T11:17:25.079Z,25.40
2023-03-21T11:19:55.265Z,23.80
2023-03-21T11:22:27.071Z,23.00
2023-03-21T11:24:59.664Z,20.47
2023-03-21T11:27:29.459Z,18.90
2023-03-21T11:29:59.862Z,18.80
2023-03-21T11:32:34.275Z,19.20
2023-03-21T11:35:03.435Z,21.47
2023-03-21T11:37:36.063Z,20.40
2023-03-21T11:40:14.806Z,17.70
2023-03-21T11:42:44.978Z,18.27
2023-03-21T11:45:15.343Z,18.73
2023-03-21T11:47:43.689Z,17.87
2023-03-21T11:50:20.038Z,16.53
2023-03-21T11:52:56.355Z,13.50
2023-03-21T11:55:37.870Z,13.90
2023-03-21T11:58:23.931Z,15.90
2023-03-21T12:00:57.235Z,16.83
2023-03-21T12:03:48.297Z,16.20
2023-03-21T12:06:22.709Z,14.80
2023-03-21T12:09:01.370Z,18.13
2023-03-21T12:11:32.874Z,14.37
2023-03-21T12:14:05.947Z,13.17
2023-03-21T12:16:43.435Z,11.77
2023-03-21T12:19:35.602Z,12.17
2023-03-21T12:22:08.712Z,13.53
2023-03-21T12:24:42.005Z,11.60
2023-03-21T12:27:13.375Z,13.50
2023-03-21T12:29:53.902Z,16.13
2023-03-21T12:32:38.642Z,12.53
2023-03-21T12:35:16.760Z,11.53
2023-03-21T12:37:55.028Z,13.10
2023-03-21T12:40:36.954Z,13.33
2023-03-21T12:43:19.529Z,12.13
2023-03-21T12:45:50.268Z,9.90
2023-03-21T12:48:22.440Z,11.53
2023-03-21T12:50:51.538Z,11.67
2023-03-21T12:53:35.736Z,12.33
2023-03-21T12:56:09.124Z,11.93
2023-03-21T12:58:43.885Z,17.00
2023-03-21T13:01:12.448Z,10.57
2023-03-21T13:03:43.949Z,11.20
2023-03-21T13:06:14.875Z,10.23
2023-03-21T13:08:46.290Z,11.57
2023-03-21T13:11:17.852Z,11.73
2023-03-21T13:13:51.668Z,11.93
2023-03-21T13:16:21.969Z,11.23
2023-03-21T13:18:56.463Z,11.83
2023-03-21T13:21:35.576Z,9.83
2023-03-21T13:24:07.249Z,11.33
2023-03-21T13:26:39.882Z,12.77
2023-03-21T13:29:24.578Z,9.70
2023-03-21T13:31:56.943Z,9.70
2023-03-21T13:34:25.632Z,11.83
2023-03-21T13:36:54.033Z,11.17
2023-03-21T13:39:26.376Z,9.00
2023-03-21T13:41:56.565Z,9.67
2023-03-21T13:44:26.939Z,8.57
2023-03-21T13:46:56.562Z,14.03
2023-03-21T13:49:31.554Z,12.23
2023-03-21T13:52:00.830Z,8.20
2023-03-21T13:54:31.840Z,9.23
2023-03-21T13:57:02.032Z,12.63
2023-03-21T13:59:41.412Z,11.17
2023-03-21T14:02:33.722Z,12.27
2023-03-21T14:05:06.406Z,8.90
2023-03-21T14:07:36.711Z,11.43
2023-03-21T14:10:08.754Z,12.17
2023-03-21T14:12:40.046Z,13.00
2023-03-21T14:15:16.332Z,10.27
2023-03-21T14:17:52.164Z,16.37
2023-03-21T14:20:22.323Z,10.80
2023-03-21T14:22:50.679Z,12.20
2023-03-21T14:25:20.074Z,12.33
2023-03-21T14:27:52.709Z,11.20
2023-03-21T14:30:26.228Z,14.53
2023-03-21T14:32:56.037Z,9.00
2023-03-21T14:35:24.244Z,10.87
2023-03-21T14:37:52.937Z,13.17
2023-03-21T14:40:24.074Z,12.53
2023-03-21T14:42:53.840Z,9.47
2023-03-21T14:45:24.059Z,10.43
2023-03-21T14:48:33.495Z,15.97
2023-03-21T14:51:04.314Z,20.37
2023-03-21T14:53:33.960Z,29.87
2023-03-21T14:56:03.965Z,21.07
2023-03-21T14:58:34.021Z,17.70
2023-03-21T15:01:04.220Z,11.33
2023-03-21T15:03:32.697Z,12.50
2023-03-21T15:06:04.741Z,10.47
2023-03-21T15:08:32.705Z,7.60
2023-03-21T15:11:07.252Z,7.70
2023-03-21T15:13:38.716Z,10.20
2023-03-21T15:16:07.444Z,7.43
2023-03-21T15:18:37.375Z,7.03
2023-03-21T15:21:08.235Z,10.13
2023-03-21T15:23:38.494Z,9.67
2023-03-21T15:26:07.305Z,9.27
2023-03-21T15:28:37.567Z,8.97
2023-03-21T15:31:06.169Z,9.80
2023-03-21T15:33:34.592Z,9.30
2023-03-21T15:36:02.509Z,8.33
2023-03-21T15:38:34.901Z,9.10
2023-03-21T15:41:26.015Z,7.50
2023-03-21T15:44:03.172Z,10.37
2023-03-21T15:46:39.986Z,8.17
2023-03-21T15:49:09.420Z,9.57
2023-03-21T15:51:37.442Z,10.00
2023-03-21T15:54:06.356Z,9.60
2023-03-21T15:56:36.137Z,9.40
2023-03-21T15:59:06.554Z,7.73
2023-03-21T16:01:38.997Z,8.50
2023-03-21T16:04:09.220Z,9.63
2023-03-21T16:06:39.535Z,7.97
2023-03-21T16:09:12.198Z,10.33
2023-03-21T16:11:41.866Z,10.10
2023-03-21T16:14:11.248Z,9.83
2023-03-21T16:16:39.604Z,11.57
2023-03-21T16:19:08.330Z,10.63
2023-03-21T16:21:38.331Z,11.80
2023-03-21T16:24:08.723Z,9.87
2023-03-21T16:26:40.227Z,11.40
2023-03-21T16:29:08.395Z,12.13
2023-03-21T16:31:38.166Z,10.17
2023-03-21T16:34:07.187Z,10.17
2023-03-21T16:36:39.688Z,10.90
2023-03-21T16:39:17.891Z,8.97
2023-03-21T16:41:46.304Z,10.60
2023-03-21T16:44:14.224Z,9.53
2023-03-21T16:46:43.530Z,15.33
2023-03-21T16:49:19.321Z,11.83
2023-03-21T16:51:47.417Z,16.20
2023-03-21T16:54:15.445Z,10.17
2023-03-21T16:56:45.614Z,10.60
2023-03-21T16:59:13.902Z,13.13
2023-03-21T17:01:46.202Z,13.67
2023-03-21T17:04:16.753Z,11.67
2023-03-21T17:06:46.254Z,11.03
2023-03-21T17:09:16.029Z,10.87
2023-03-21T17:11:44.336Z,13.07
2023-03-21T17:14:13.470Z,13.43
2023-03-21T17:16:43.398Z,12.80
2023-03-21T17:19:14.189Z,13.90
2023-03-21T17:21:42.140Z,10.40
2023-03-21T17:24:10.176Z,10.33
2023-03-21T17:26:38.504Z,14.37
2023-03-21T17:29:07.329Z,11.63
2023-03-21T17:31:38.115Z,15.00
2023-03-21T17:34:10.832Z,16.10
2023-03-21T17:36:40.840Z,14.00
2023-03-21T17:39:10.632Z,13.53
2023-03-21T17:41:38.542Z,12.20
2023-03-21T17:44:06.854Z,12.47
2023-03-21T17:46:37.232Z,17.17
2023-03-21T17:49:07.801Z,12.17
2023-03-21T17:51:35.819Z,11.97
2023-03-21T17:54:05.030Z,13.73
2023-03-21T17:56:34.463Z,13.87
2023-03-21T17:59:05.874Z,12.17
2023-03-21T18:01:36.090Z,14.90
2023-03-21T18:04:05.064Z,15.60
2023-03-21T18:06:35.195Z,12.83
2023-03-21T18:09:07.176Z,17.30
2023-03-21T18:11:35.348Z,21.13
2023-03-21T18:14:15.278Z,14.23
2023-03-21T18:16:44.337Z,15.80
2023-03-21T18:19:12.933Z,15.20
2023-03-21T18:21:45.291Z,15.20
2023-03-21T18:24:14.020Z,14.33
2023-03-21T18:26:42.262Z,17.60
2023-03-21T18:30:13.175Z,17.00
2023-03-21T18:32:06.964Z,15.83
2023-03-21T18:34:36.363Z,13.33
2023-03-21T18:37:07.518Z,13.10
2023-03-21T18:39:35.699Z,11.13
2023-03-21T18:42:05.463Z,12.90
2023-03-21T18:44:37.974Z,18.20
2023-03-21T18:47:06.764Z,13.40
2023-03-21T18:52:24.364Z,14.47
2023-03-21T18:54:53.268Z,14.00
2023-03-21T18:57:38.652Z,12.70
2023-03-21T19:00:13.021Z,16.17
2023-03-21T19:02:46.004Z,14.63
2023-03-21T19:05:16.220Z,14.47
2023-03-21T19:07:45.706Z,12.97
2023-03-21T19:10:19.293Z,12.57
2023-03-21T19:12:47.876Z,12.83
2023-03-21T19:15:18.769Z,16.07
2023-03-21T19:18:26.499Z,11.43
2023-03-21T19:20:35.044Z,17.30
2023-03-21T19:23:06.078Z,15.27
2023-03-21T19:25:34.051Z,18.27
2023-03-21T19:28:01.934Z,14.37
2023-03-21T19:30:29.894Z,14.53
2023-03-21T19:32:57.785Z,12.00
2023-03-21T19:35:25.778Z,15.53
2023-03-21T19:37:53.709Z,13.77
2023-03-21T19:40:23.873Z,16.73
2023-03-21T19:42:52.774Z,13.97
2023-03-21T19:45:20.811Z,15.33
2023-03-21T19:47:48.787Z,14.87
2023-03-21T19:53:04.869Z,10.63
2023-03-21T19:55:34.165Z,13.67
2023-03-21T19:58:02.155Z,13.83
2023-03-21T20:00:30.234Z,12.87
2023-03-21T20:02:58.245Z,14.37
2023-03-21T20:05:26.300Z,12.07
2023-03-21T20:07:57.310Z,12.83
2023-03-21T20:10:27.477Z,11.20
2023-03-21T20:12:56.945Z,16.00
2023-03-21T20:15:28.410Z,11.57
2023-03-21T20:17:57.900Z,13.50
2023-03-21T20:20:26.151Z,12.27
2023-03-21T20:23:11.245Z,14.43
2023-03-21T20:25:40.963Z,10.70
2023-03-21T20:28:17.139Z,10.23
2023-03-21T20:30:49.346Z,15.10
2023-03-21T20:33:17.753Z,8.13
2023-03-21T20:36:35.570Z,10.47
2023-03-21T20:38:34.512Z,16.63
2023-03-21T20:41:03.774Z,11.00
2023-03-21T20:46:21.477Z,11.20
2023-03-21T20:48:49.807Z,11.23
2023-03-21T20:52:29.431Z,9.27
2023-03-21T20:54:06.062Z,10.43
2023-03-21T20:56:34.615Z,10.33
2023-03-21T20:59:16.827Z,11.83
2023-03-21T21:01:48.742Z,8.57
2023-03-21T21:04:20.110Z,9.70
2023-03-21T21:06:48.569Z,9.60
2023-03-21T21:09:16.695Z,10.83
2023-03-21T21:14:35.590Z,8.77
2023-03-21T21:17:21.066Z,9.20
2023-03-21T21:19:51.378Z,10.07
2023-03-21T21:22:19.306Z,11.57
2023-03-21T21:24:47.214Z,9.10
2023-03-21T21:27:15.190Z,10.70
2023-03-21T21:29:47.778Z,12.47
2023-03-21T21:32:17.048Z,9.57
2023-03-21T21:34:44.996Z,9.10
2023-03-21T21:37:12.898Z,8.30
2023-03-21T21:39:42.036Z,12.47
2023-03-21T21:42:10.020Z,9.17
2023-03-21T21:44:39.985Z,8.53
2023-03-21T21:47:09.366Z,9.93
2023-03-21T21:49:37.791Z,8.50
2023-03-21T21:52:05.908Z,10.67
2023-03-21T21:54:35.149Z,10.47
2023-03-21T21:57:03.051Z,8.57
2023-03-21T21:59:31.206Z,9.93
2023-03-21T22:02:00.677Z,8.80
2023-03-21T22:04:30.179Z,10.67
2023-03-21T22:06:58.074Z,8.90
2023-03-21T22:09:26.117Z,9.23
2023-03-21T22:11:55.415Z,7.43
2023-03-21T22:14:23.373Z,10.57
2023-03-21T22:16:51.824Z,7.53
2023-03-21T22:19:19.697Z,8.10
2023-03-21T22:21:49.007Z,7.50
2023-03-21T22:24:17.139Z,10.10
2023-03-21T22:26:45.174Z,10.33
2023-03-21T22:29:13.181Z,7.50
2023-03-21T22:31:41.951Z,8.67
2023-03-21T22:34:09.944Z,7.67
2023-03-21T22:36:37.876Z,7.33
2023-03-21T22:39:07.355Z,11.43
2023-03-21T22:41:35.462Z,10.47
2023-03-21T22:44:03.409Z,9.57
2023-03-21T22:46:31.280Z,7.93
2023-03-21T22:48:59.201Z,8.63
2023-03-21T22:51:27.114Z,8.80
2023-03-21T22:53:55.221Z,8.20
2023-03-21T22:56:24.511Z,8.90
2023-03-21T22:58:52.571Z,8.43
2023-03-21T23:01:20.507Z,9.57
2023-03-21T23:03:48.409Z,8.33
2023-03-21T23:06:16.359Z,11.63
2023-03-21T23:08:44.302Z,6.53
2023-03-21T23:11:13.116Z,11.07
2023-03-21T23:13:42.475Z,8.93
2023-03-21T23:16:10.620Z,9.73
2023-03-21T23:18:38.686Z,10.37
2023-03-21T23:21:13.168Z,8.60
2023-03-21T23:23:43.852Z,8.07
2023-03-21T23:26:12.488Z,9.20
2023-03-21T23:28:40.584Z,10.33
2023-03-21T23:31:11.612Z,9.70
2023-03-21T23:33:39.590Z,14.83
2023-03-21T23:36:08.630Z,8.13
2023-03-21T23:38:36.650Z,8.87
2023-03-21T23:41:07.925Z,11.97
2023-03-21T23:43:35.918Z,10.80
2023-03-21T23:46:04.056Z,9.47
2023-03-21T23:48:33.486Z,9.97
2023-03-21T23:51:01.594Z,11.50
2023-03-21T23:53:29.495Z,12.53
2023-03-21T23:55:58.709Z,9.20
2023-03-21T23:58:27.872Z,13.00
